Time;durP1;ratioP1;P1;durP2;ratioP2;P2;SDS_P1;SDS_P2;PMS_P1;PMS_P2;Temp;Humidity;BMP_temperature;BMP_pressure;BME280_temperature;BME280_humidity;BME280_pressure;Samples;Min_cycle;Max_cycle;Signal;HPM_P1;HPM_P2
2023/06/10 00:00:06;;;;;;;23.70;8.20;;;;;;;14.77;100.00;100946.45;105666;1256;60558;-44
2023/06/10 00:02:39;;;;;;;18.20;8.60;;;;;;;14.73;100.00;100943.09;105634;1259;60333;-44
2023/06/10 00:05:08;;;;;;;28.30;8.60;;;;;;;14.70;100.00;100940.55;105641;1256;72583;-44
2023/06/10 00:07:40;;;;;;;21.30;6.80;;;;;;;14.67;100.00;100936.98;105653;1260;65908;-44
2023/06/10 00:10:10;;;;;;;15.10;7.20;;;;;;;14.65;100.00;100935.45;105677;1259;71212;-44
2023/06/10 00:12:38;;;;;;;16.80;6.80;;;;;;;14.63;100.00;100931.68;105622;1259;61199;-44
2023/06/10 00:15:07;;;;;;;15.90;6.30;;;;;;;14.62;100.00;100927.38;105597;1259;60348;-44
2023/06/10 00:17:38;;;;;;;14.40;6.70;;;;;;;14.61;100.00;100918.39;105465;1254;72563;-45
2023/06/10 00:20:09;;;;;;;23.00;8.40;;;;;;;14.61;100.00;100910.20;105679;1259;65185;-46
2023/06/10 00:22:39;;;;;;;12.00;7.60;;;;;;;14.60;100.00;100897.04;105619;1258;71442;-44
2023/06/10 00:25:07;;;;;;;17.80;8.20;;;;;;;14.59;100.00;100886.13;105636;1259;61248;-44
2023/06/10 00:27:35;;;;;;;19.40;7.40;;;;;;;14.58;100.00;100878.52;105689;1256;60459;-44
2023/06/10 00:30:06;;;;;;;14.20;6.80;;;;;;;14.56;100.00;100874.94;105629;1259;73851;-44
2023/06/10 00:32:34;;;;;;;16.30;8.00;;;;;;;14.53;100.00;100870.34;105658;1258;65300;-45
2023/06/10 00:35:06;;;;;;;27.40;6.60;;;;;;;14.50;100.00;100867.62;105632;1255;71372;-44
2023/06/10 00:37:38;;;;;;;14.60;6.80;;;;;;;14.51;100.00;100861.70;105632;1258;61013;-44
2023/06/10 00:40:08;;;;;;;16.40;6.80;;;;;;;14.49;100.00;100854.62;105640;1258;60413;-44
2023/06/10 00:42:36;;;;;;;15.80;6.60;;;;;;;14.46;100.00;100847.25;105657;1260;73862;-45
2023/06/10 00:45:05;;;;;;;16.10;6.30;;;;;;;14.42;100.00;100839.04;105670;1259;64006;-44
2023/06/10 00:47:35;;;;;;;15.10;6.60;;;;;;;14.41;100.00;100831.60;105609;1260;71392;-44
2023/06/10 00:50:03;;;;;;;15.40;6.50;;;;;;;14.41;100.00;100830.21;105612;1256;60732;-45
2023/06/10 00:52:31;;;;;;;18.30;6.80;;;;;;;14.40;100.00;100824.02;105732;1259;60410;-44
2023/06/10 00:54:59;;;;;;;11.80;6.50;;;;;;;14.37;100.00;100822.51;105639;1259;73800;-44
2023/06/10 00:57:27;;;;;;;12.20;6.30;;;;;;;14.33;100.00;100816.90;105594;1261;63990;-44
2023/06/10 00:59:54;;;;;;;14.00;6.20;;;;;;;14.30;100.00;100814.55;105621;1261;71357;-44
2023/06/10 01:02:22;;;;;;;16.30;6.40;;;;;;;14.28;100.00;100813.05;105384;1267;304359;-44
2023/06/10 01:04:52;;;;;;;12.90;5.80;;;;;;;14.24;100.00;100812.45;105637;1258;60339;-44
2023/06/10 01:08:23;;;;;;;8.20;5.70;;;;;;;14.21;100.00;100837.36;102926;1290;600614;-44
2023/06/10 01:10:58;;;;;;;12.80;5.90;;;;;;;14.15;100.00;100816.18;105156;1264;60467;-45
2023/06/10 01:13:28;;;;;;;7.50;5.90;;;;;;;14.12;100.00;100814.17;105608;1258;59992;-43
2023/06/10 01:15:58;;;;;;;10.20;5.80;;;;;;;14.10;100.00;100815.45;105311;1264;71042;-44
2023/06/10 01:18:32;;;;;;;13.00;6.00;;;;;;;14.09;100.00;100813.90;105499;1258;64385;-44
2023/06/10 01:21:00;;;;;;;10.60;6.30;;;;;;;14.08;100.00;100805.60;105370;1254;229265;-44
2023/06/10 01:23:27;;;;;;;11.30;6.40;;;;;;;14.07;100.00;100802.69;105615;1261;60428;-44
2023/06/10 01:26:13;;;;;;;15.20;6.00;;;;;;;14.04;100.00;100795.65;105628;1261;59327;-44
2023/06/10 01:29:14;;;;;;;18.50;6.70;;;;;;;14.02;100.00;100792.76;105608;1255;71061;-43
2023/06/10 01:31:45;;;;;;;16.60;5.90;;;;;;;14.01;100.00;100789.30;105418;1254;64068;-44
2023/06/10 01:34:15;;;;;;;9.20;5.50;;;;;;;14.00;100.00;100787.08;105575;1257;71392;-44
2023/06/10 01:36:47;;;;;;;11.00;5.70;;;;;;;13.99;100.00;100784.49;105634;1261;61707;-44
2023/06/10 01:39:16;;;;;;;20.70;6.30;;;;;;;13.99;100.00;100781.73;105655;1254;60055;-44
2023/06/10 01:41:44;;;;;;;15.00;5.80;;;;;;;13.99;100.00;100776.54;105630;1254;71874;-44
2023/06/10 01:44:12;;;;;;;15.60;5.80;;;;;;;13.97;100.00;100774.48;105646;1254;63956;-45
2023/06/10 01:46:40;;;;;;;12.40;5.60;;;;;;;13.97;100.00;100769.48;105671;1260;71443;-44
2023/06/10 01:49:08;;;;;;;20.90;6.80;;;;;;;13.98;100.00;100767.00;105602;1259;59724;-44
2023/06/10 01:51:36;;;;;;;10.40;5.90;;;;;;;14.01;100.00;100766.23;105631;1254;59587;-44
2023/06/10 01:54:03;;;;;;;13.30;5.90;;;;;;;14.01;100.00;100759.64;105611;1261;71560;-43
2023/06/10 01:56:32;;;;;;;17.10;6.10;;;;;;;14.00;100.00;100752.58;105655;1261;63991;-44
2023/06/10 01:58:59;;;;;;;20.50;6.30;;;;;;;13.99;100.00;100752.41;105599;1260;71576;-44
2023/06/10 02:01:28;;;;;;;18.10;6.30;;;;;;;13.98;100.00;100750.52;105575;1262;60445;-44
2023/06/10 02:03:56;;;;;;;16.30;5.80;;;;;;;13.97;100.00;100748.66;105692;1261;59532;-44
2023/06/10 02:06:24;;;;;;;10.20;5.50;;;;;;;13.94;100.00;100749.41;105552;1254;71789;-44
2023/06/10 02:08:53;;;;;;;12.90;5.20;;;;;;;13.93;100.00;100748.25;105681;1254;65248;-44
2023/06/10 02:11:21;;;;;;;19.40;5.70;;;;;;;13.91;100.00;100751.25;105561;1254;72697;-44
2023/06/10 02:16:39;;;;;;;14.10;5.60;;;;;;;13.90;100.00;100767.58;102933;1292;599420;-44
2023/06/10 02:19:07;;;;;;;16.90;6.00;;;;;;;13.89;100.00;100754.42;105100;1270;61871;-43
2023/06/10 02:21:35;;;;;;;13.60;5.70;;;;;;;13.90;100.00;100753.35;105059;1266;59203;-44
2023/06/10 02:24:03;;;;;;;12.90;6.20;;;;;;;13.91;100.00;100749.84;105054;1269;71015;-43
2023/06/10 02:26:31;;;;;;;14.30;5.40;;;;;;;13.95;100.00;100747.65;104836;1264;64094;-44
2023/06/10 02:29:00;;;;;;;16.20;5.70;;;;;;;13.99;100.00;100747.36;104932;1270;70416;-43
2023/06/10 02:31:28;;;;;;;10.50;5.90;;;;;;;14.02;100.00;100741.22;105132;1263;207499;-43
2023/06/10 02:33:56;;;;;;;12.60;5.90;;;;;;;14.06;100.00;100739.73;105196;1263;59998;-43
2023/06/10 02:36:28;;;;;;;8.50;5.00;;;;;;;14.12;100.00;100735.58;105225;1266;71287;-44
2023/06/10 02:38:55;;;;;;;7.60;5.20;;;;;;;14.19;100.00;100734.33;105259;1266;64069;-43
2023/06/10 02:41:24;;;;;;;16.40;5.40;;;;;;;14.28;100.00;100726.60;105168;1264;71689;-44
2023/06/10 02:43:53;;;;;;;17.50;5.40;;;;;;;14.36;100.00;100725.30;104995;1263;60477;-44
2023/06/10 02:46:21;;;;;;;11.90;5.00;;;;;;;14.45;100.00;100722.64;105082;1267;59538;-45
2023/06/10 02:48:51;;;;;;;12.50;5.80;;;;;;;14.55;100.00;100723.88;105192;1263;71833;-44
2023/06/10 02:51:21;;;;;;;9.80;5.60;;;;;;;14.64;100.00;100721.17;105195;1267;64488;-42
2023/06/10 02:53:53;;;;;;;11.00;6.00;;;;;;;14.73;100.00;100722.66;105180;1267;72656;-42
2023/06/10 02:56:22;;;;;;;15.00;5.40;;;;;;;14.81;100.00;100721.55;105182;1269;60399;-42
2023/06/10 02:58:51;;;;;;;13.70;5.30;;;;;;;14.90;100.00;100723.01;105205;1263;59592;-43
2023/06/10 03:01:20;;;;;;;20.00;5.40;;;;;;;14.99;100.00;100719.74;105126;1264;71758;-43
2023/06/10 03:04:04;;;;;;;14.60;5.30;;;;;;;15.12;100.00;100724.91;105188;1264;64917;-41
2023/06/10 03:06:35;;;;;;;17.60;5.00;;;;;;;15.24;100.00;100726.93;105154;1264;71197;-42
2023/06/10 03:09:10;;;;;;;12.70;5.70;;;;;;;15.37;100.00;100725.64;105199;1263;60466;-43
2023/06/10 03:11:38;;;;;;;13.10;5.30;;;;;;;15.51;100.00;100724.09;105232;1266;59614;-43
2023/06/10 03:14:07;;;;;;;18.00;5.90;;;;;;;15.67;100.00;100722.35;105189;1267;72243;-43
2023/06/10 03:16:34;;;;;;;22.20;5.60;;;;;;;15.84;100.00;100726.42;105109;1267;64048;-43
2023/06/10 03:19:02;;;;;;;11.70;5.30;;;;;;;16.01;100.00;100731.95;105188;1267;71926;-42
2023/06/10 03:21:31;;;;;;;20.00;5.10;;;;;;;16.18;100.00;100742.10;105267;1267;59745;-41
2023/06/10 03:24:00;;;;;;;13.20;4.80;;;;;;;16.35;100.00;100743.73;105190;1263;59973;-42
2023/06/10 03:26:27;;;;;;;14.10;5.50;;;;;;;16.51;100.00;100750.98;105289;1267;71145;-43
2023/06/10 03:28:55;;;;;;;10.80;5.00;;;;;;;16.68;100.00;100762.89;105170;1269;63929;-43
2023/06/10 03:31:24;;;;;;;11.70;5.20;;;;;;;16.84;100.00;100779.83;105202;1264;71680;-42
2023/06/10 03:33:52;;;;;;;20.60;5.60;;;;;;;17.02;100.00;100803.04;105206;1264;61742;-44
2023/06/10 03:36:20;;;;;;;11.90;5.00;;;;;;;17.22;100.00;100833.14;105184;1264;59941;-43
2023/06/10 03:38:51;;;;;;;13.20;5.40;;;;;;;17.42;100.00;100864.42;105166;1267;72051;-42
2023/06/10 03:41:21;;;;;;;13.70;5.50;;;;;;;17.67;100.00;100908.58;105194;1263;64085;-43
2023/06/10 03:43:49;;;;;;;18.20;5.40;;;;;;;17.96;100.00;100949.51;105179;1264;72452;-42
2023/06/10 03:46:17;;;;;;;18.00;5.70;;;;;;;18.26;100.00;100983.00;105168;1263;59787;-43
2023/06/10 03:48:46;;;;;;;11.30;5.20;;;;;;;18.56;100.00;101000.60;105088;1264;60110;-43
2023/06/10 03:51:13;;;;;;;13.20;5.90;;;;;;;18.82;100.00;100963.45;105157;1264;71816;-44
2023/06/10 03:53:41;;;;;;;18.30;6.10;;;;;;;19.07;100.00;100872.98;105229;1263;64312;-43
2023/06/10 03:56:09;;;;;;;21.00;6.70;;;;;;;19.33;100.00;100757.00;105049;1267;71369;-43
2023/06/10 03:58:36;;;;;;;13.20;6.40;;;;;;;19.54;100.00;100612.06;105035;1269;61730;-44
2023/06/10 04:01:04;;;;;;;22.00;7.30;;;;;;;19.71;100.00;100472.02;105174;1264;59653;-44
2023/06/10 04:03:33;;;;;;;19.40;7.20;;;;;;;19.87;100.00;100364.70;105208;1263;72423;-44
2023/06/10 04:06:01;;;;;;;25.30;8.40;;;;;;;20.05;100.00;100270.84;105064;1269;63971;-44
2023/06/10 04:08:29;;;;;;;31.80;9.20;;;;;;;20.29;100.00;100193.50;105186;1267;71400;-44
2023/06/10 04:10:59;;;;;;;40.20;10.20;;;;;;;20.55;100.00;100118.45;105207;1263;60151;-43
2023/06/10 04:13:27;;;;;;;45.60;11.50;;;;;;;20.83;100.00;100093.15;105184;1264;59545;-43
2023/06/10 04:15:57;;;;;;;42.30;10.20;;;;;;;21.12;100.00;100117.35;105210;1267;73041;-44
2023/06/10 04:18:25;;;;;;;36.60;8.60;;;;;;;21.37;100.00;100183.36;105115;1267;65752;-44
2023/06/10 04:20:55;;;;;;;21.50;7.50;;;;;;;21.60;100.00;100258.55;105172;1267;71786;-43
2023/06/10 04:23:23;;;;;;;24.80;8.50;;;;;;;21.88;100.00;100290.71;105582;1257;59634;-45
2023/06/10 04:25:50;;;;;;;30.70;9.30;;;;;;;22.20;100.00;100323.83;105678;1260;59606;-43
2023/06/10 04:28:18;;;;;;;33.10;8.60;;;;;;;22.56;100.00;100359.19;105518;1255;71763;-45
2023/06/10 04:30:46;;;;;;;24.80;11.00;;;;;;;22.89;100.00;100388.67;105617;1257;64250;-43
2023/06/10 04:33:14;;;;;;;24.90;9.00;;;;;;;23.16;100.00;100406.32;105617;1260;71700;-44
2023/06/10 04:35:42;;;;;;;28.50;7.90;;;;;;;23.37;100.00;100418.21;105673;1256;59816;-43
2023/06/10 04:38:12;;;;;;;29.60;8.00;;;;;;;23.62;100.00;100429.59;105630;1260;59534;-43
2023/06/10 04:40:40;;;;;;;30.30;8.30;;;;;;;23.87;98.15;100436.86;105581;1260;71243;-44
2023/06/10 04:43:08;;;;;;;20.50;6.60;;;;;;;24.06;88.30;100446.81;105645;1257;64373;-44
2023/06/10 04:45:36;;;;;;;25.50;5.70;;;;;;;24.24;84.68;100455.52;105567;1259;71694;-43
2023/06/10 04:48:06;;;;;;;17.70;5.80;;;;;;;24.43;74.79;100441.19;105616;1257;59735;-44
2023/06/10 04:50:34;;;;;;;15.60;5.70;;;;;;;24.51;68.88;100434.39;105604;1261;59522;-44
2023/06/10 04:53:01;;;;;;;21.10;5.40;;;;;;;24.48;67.77;100455.09;105624;1258;71872;-43
2023/06/10 04:55:29;;;;;;;16.00;4.70;;;;;;;24.52;66.99;100457.58;105651;1258;64113;-44
2023/06/10 04:57:57;;;;;;;10.00;4.60;;;;;;;24.53;64.92;100447.45;105547;1257;71636;-43
2023/06/10 05:00:25;;;;;;;17.20;4.80;;;;;;;24.56;64.93;100461.38;105632;1257;59682;-44
2023/06/10 05:02:52;;;;;;;16.40;4.80;;;;;;;24.61;64.27;100462.53;105588;1260;60019;-44
2023/06/10 05:05:20;;;;;;;23.50;5.60;;;;;;;24.72;64.10;100466.48;105596;1256;71679;-43
2023/06/10 05:07:48;;;;;;;20.50;5.80;;;;;;;24.90;62.93;100449.37;105607;1261;63910;-44
2023/06/10 05:10:16;;;;;;;15.10;4.90;;;;;;;25.07;59.97;100390.55;105599;1260;71057;-43
2023/06/10 05:12:43;;;;;;;17.00;5.20;;;;;;;25.25;58.31;100369.84;105564;1257;60161;-44
2023/06/10 05:15:11;;;;;;;19.20;4.80;;;;;;;25.43;56.82;100344.52;105600;1260;59592;-44
2023/06/10 05:17:39;;;;;;;24.60;4.60;;;;;;;25.57;55.70;100321.46;105571;1257;71738;-44
2023/06/10 05:20:08;;;;;;;21.70;5.00;;;;;;;25.68;56.17;100363.66;105340;1260;63911;-44
2023/06/10 05:22:35;;;;;;;11.90;4.60;;;;;;;25.89;56.13;100369.50;105571;1258;73077;-45
2023/06/10 05:25:04;;;;;;;19.20;5.80;;;;;;;26.11;53.20;100224.30;105605;1257;60155;-43
2023/06/10 05:27:32;;;;;;;18.50;5.20;;;;;;;26.26;52.41;100215.90;105610;1260;59589;-44
2023/06/10 05:29:59;;;;;;;25.20;4.20;;;;;;;26.40;51.75;100210.30;105613;1260;73924;-44
2023/06/10 05:32:27;;;;;;;13.70;3.90;;;;;;;26.50;50.56;100136.51;105568;1258;63921;-43
2023/06/10 05:34:55;;;;;;;16.50;3.60;;;;;;;26.56;50.08;100116.90;105943;1257;72713;-44
2023/06/10 05:37:23;;;;;;;13.00;3.90;;;;;;;26.63;50.41;100173.73;105904;1251;59612;-43
2023/06/10 05:39:51;;;;;;;10.20;3.70;;;;;;;26.71;50.36;100190.61;105925;1251;60541;-44
2023/06/10 05:42:18;;;;;;;17.30;3.70;;;;;;;26.70;50.06;100176.84;105951;1256;71087;-44
2023/06/10 05:44:46;;;;;;;7.60;3.20;;;;;;;26.75;50.16;100190.41;105923;1251;64075;-43
2023/06/10 05:47:14;;;;;;;10.50;3.60;;;;;;;26.87;49.63;100176.36;105928;1254;71899;-44
2023/06/10 05:49:42;;;;;;;6.80;3.50;;;;;;;26.95;49.30;100131.21;105917;1256;59604;-43
2023/06/10 05:52:10;;;;;;;8.60;3.20;;;;;;;27.02;48.90;100122.61;105928;1251;59550;-43
2023/06/10 05:54:37;;;;;;;9.30;3.90;;;;;;;27.11;48.51;100103.23;105946;1256;73067;-44
2023/06/10 05:57:05;;;;;;;12.60;4.50;;;;;;;27.22;48.60;100125.06;105970;1257;64914;-44
2023/06/10 05:59:33;;;;;;;10.00;3.50;;;;;;;27.40;48.36;100111.10;105947;1256;71412;-44
2023/06/10 06:02:01;;;;;;;22.30;5.60;;;;;;;27.60;47.74;100045.27;105931;1254;59705;-44
2023/06/10 06:04:29;;;;;;;18.10;6.70;;;;;;;27.65;46.49;99921.42;105934;1251;59948;-44
2023/06/10 06:06:57;;;;;;;23.30;6.90;;;;;;;27.67;46.48;99929.23;105957;1256;72594;-44
2023/06/10 06:09:25;;;;;;;15.60;6.20;;;;;;;27.69;46.20;99940.08;105882;1256;64487;-44
2023/06/10 06:11:53;;;;;;;19.00;7.20;;;;;;;27.68;46.65;99995.66;105948;1252;72309;-42
2023/06/10 06:14:21;;;;;;;21.20;6.90;;;;;;;27.77;46.91;100044.88;105923;1254;59671;-43
2023/06/10 06:16:48;;;;;;;24.70;7.60;;;;;;;27.86;46.66;100027.48;105917;1251;59737;-43
2023/06/10 06:19:16;;;;;;;29.90;7.10;;;;;;;27.95;46.74;100032.13;105950;1256;71818;-44
2023/06/10 06:21:44;;;;;;;17.30;5.90;;;;;;;28.02;45.84;99937.14;105882;1256;63950;-43
2023/06/10 06:24:12;;;;;;;19.80;5.70;;;;;;;28.02;45.19;99869.96;105958;1251;70659;-44
2023/06/10 06:26:39;;;;;;;17.50;5.70;;;;;;;28.07;46.27;99998.68;105940;1254;60498;-44
2023/06/10 06:29:07;;;;;;;19.20;5.50;;;;;;;28.13;46.46;100041.91;105938;1257;60527;-44
2023/06/10 06:31:35;;;;;;;16.00;5.00;;;;;;;28.16;46.25;100021.22;105950;1251;74446;-44
2023/06/10 06:34:02;;;;;;;10.90;3.80;;;;;;;28.28;45.90;99981.78;105914;1251;63309;-44
2023/06/10 06:36:30;;;;;;;10.40;4.10;;;;;;;28.33;45.30;99911.34;105891;1253;71467;-45
2023/06/10 06:38:58;;;;;;;130.20;55.10;;;;;;;28.33;45.41;99926.48;105888;1251;60423;-42
2023/06/10 06:41:27;;;;;;;53.70;21.90;;;;;;;28.31;46.35;100044.09;105882;1251;60309;-43
2023/06/10 06:43:55;;;;;;;37.30;11.20;;;;;;;28.46;46.68;100092.44;105911;1257;71845;-43
2023/06/10 06:46:43;;;;;;;33.10;12.80;;;;;;;28.68;45.41;99939.70;105898;1256;65222;-43
2023/06/10 06:49:11;;;;;;;27.80;11.20;;;;;;;28.82;44.55;99848.33;105930;1254;72641;-43
2023/06/10 06:51:39;;;;;;;18.90;6.70;;;;;;;28.88;43.92;99755.25;105882;1254;60946;-43
2023/06/10 06:54:06;;;;;;;22.20;5.60;;;;;;;28.90;44.75;99871.95;105913;1251;60422;-43
2023/06/10 06:56:34;;;;;;;8.50;4.90;;;;;;;28.98;44.01;99787.36;105919;1251;72722;-43
2023/06/10 06:59:02;;;;;;;16.70;5.50;;;;;;;29.02;43.87;99767.88;105892;1251;65133;-43
2023/06/10 07:01:30;;;;;;;27.40;9.80;;;;;;;29.07;44.24;99836.53;105916;1254;71539;-43
2023/06/10 07:03:57;;;;;;;17.50;4.50;;;;;;;29.11;43.05;99697.19;105922;1252;60526;-43
2023/06/10 07:06:25;;;;;;;14.40;5.90;;;;;;;28.97;41.55;99503.05;105895;1251;60414;-43
2023/06/10 07:08:53;;;;;;;31.40;11.40;;;;;;;28.61;41.74;99520.77;105915;1257;73842;-43
2023/06/10 07:11:21;;;;;;;23.00;8.10;;;;;;;28.26;41.90;99580.30;105936;1257;64429;-43
2023/06/10 07:13:49;;;;;;;54.70;11.20;;;;;;;27.94;42.37;99658.27;105854;1257;71454;-43
2023/06/10 07:16:17;;;;;;;30.30;10.10;;;;;;;27.69;42.76;99720.16;105943;1256;60587;-43
2023/06/10 07:18:45;;;;;;;78.00;28.70;;;;;;;27.59;44.01;99900.48;105734;1257;60324;-43
2023/06/10 07:21:13;;;;;;;35.60;12.10;;;;;;;27.52;42.85;99796.60;105901;1256;73822;-43
2023/06/10 07:23:44;;;;;;;31.90;11.20;;;;;;;27.37;42.95;99783.70;105906;1251;65284;-43
2023/06/10 07:26:13;;;;;;;35.60;10.50;;;;;;;27.25;44.33;99966.05;105949;1257;72695;-42
2023/06/10 07:28:41;;;;;;;19.10;7.00;;;;;;;27.24;45.08;100075.77;105955;1254;60526;-44
2023/06/10 07:31:09;;;;;;;32.10;7.30;;;;;;;27.35;44.92;100059.35;105913;1256;60425;-43
2023/06/10 07:33:38;;;;;;;30.60;11.50;;;;;;;27.48;44.06;99956.64;105933;1251;72624;-43
2023/06/10 07:36:07;;;;;;;14.80;4.40;;;;;;;27.64;44.58;100001.48;105943;1257;64062;-43
2023/06/10 07:38:34;;;;;;;21.30;4.90;;;;;;;27.84;44.09;99942.15;105954;1251;72619;-43
2023/06/10 07:41:02;;;;;;;22.60;5.80;;;;;;;27.98;43.08;99830.98;105888;1254;60548;-43
2023/06/10 07:43:30;;;;;;;13.30;4.10;;;;;;;28.11;42.67;99754.33;105938;1251;60411;-43
2023/06/10 07:45:57;;;;;;;20.70;3.40;;;;;;;28.17;43.61;99872.41;105885;1256;72212;-43
2023/06/10 07:48:25;;;;;;;9.30;3.30;;;;;;;28.17;43.01;99801.77;105928;1257;64062;-44
2023/06/10 07:50:53;;;;;;;9.70;3.40;;;;;;;28.22;43.29;99840.85;105902;1254;71371;-43
2023/06/10 07:53:21;;;;;;;10.10;3.40;;;;;;;28.35;43.10;99806.30;105744;1254;60519;-42
2023/06/10 07:55:49;;;;;;;17.10;2.90;;;;;;;28.56;42.59;99745.42;105849;1257;60415;-44
2023/06/10 07:58:16;;;;;;;19.70;2.90;;;;;;;28.87;41.97;99657.50;105935;1251;73819;-43
2023/06/10 08:00:44;;;;;;;12.00;3.00;;;;;;;29.21;41.64;99614.02;105889;1251;65266;-43
2023/06/10 08:03:12;;;;;;;3.90;2.90;;;;;;;29.52;40.32;99425.73;105940;1251;70954;-44
2023/06/10 08:05:40;;;;;;;15.60;3.00;;;;;;;29.77;39.50;99316.38;105911;1257;60443;-42
2023/06/10 08:08:08;;;;;;;12.50;2.90;;;;;;;29.84;37.38;99001.80;105948;1251;60443;-43
2023/06/10 08:10:36;;;;;;;6.70;3.10;;;;;;;29.82;38.47;99126.67;105894;1251;73091;-43
2023/06/10 08:13:04;;;;;;;11.70;3.00;;;;;;;29.97;38.67;99198.19;105940;1256;66009;-44
2023/06/10 08:15:31;;;;;;;21.90;3.30;;;;;;;30.16;38.23;99136.48;105899;1257;71372;-43
2023/06/10 08:17:59;;;;;;;7.70;2.60;;;;;;;30.42;38.36;99137.02;105906;1254;60459;-42
2023/06/10 08:20:27;;;;;;;6.80;2.60;;;;;;;30.73;38.32;99153.73;105910;1256;60434;-42
2023/06/10 08:22:55;;;;;;;7.50;2.30;;;;;;;31.03;36.09;98848.59;105965;1251;73974;-43
2023/06/10 08:25:23;;;;;;;8.50;2.10;;;;;;;31.29;36.21;98815.30;105915;1251;65683;-43
2023/06/10 08:27:51;;;;;;;8.60;2.10;;;;;;;31.52;36.22;98804.23;105914;1256;72708;-43
2023/06/10 08:30:19;;;;;;;7.90;2.40;;;;;;;31.73;35.86;98813.77;105915;1251;60511;-43
2023/06/10 08:32:47;;;;;;;12.30;2.30;;;;;;;31.91;33.54;98485.80;105959;1257;60405;-43
2023/06/10 08:35:15;;;;;;;6.50;2.20;;;;;;;31.86;32.58;98291.79;105904;1251;73743;-43
2023/06/10 08:37:43;;;;;;;3.80;2.90;;;;;;;31.58;32.53;98321.33;105921;1251;64264;-43
2023/06/10 08:40:11;;;;;;;5.50;2.20;;;;;;;31.20;32.46;98259.74;105873;1253;70808;-43
2023/06/10 08:42:50;;;;;;;11.70;2.60;;;;;;;30.91;32.90;98355.67;105912;1251;60498;-43
2023/06/10 08:45:18;;;;;;;8.80;5.80;;;;;;;30.56;33.90;98489.79;105923;1251;60478;-43
2023/06/10 08:47:46;;;;;;;10.10;5.20;;;;;;;30.28;34.30;98568.20;105914;1256;73545;-42
2023/06/10 08:50:14;;;;;;;6.20;4.10;;;;;;;29.91;34.32;98593.55;105744;1259;65360;-43
2023/06/10 08:52:43;;;;;;;8.70;2.90;;;;;;;29.58;34.84;98680.65;105694;1259;72074;-43
2023/06/10 08:55:14;;;;;;;14.20;2.60;;;;;;;29.49;34.93;98711.11;105917;1251;60414;-43
2023/06/10 08:57:44;;;;;;;5.80;2.80;;;;;;;29.69;36.03;98822.65;105952;1251;60498;-43
2023/06/10 09:00:13;;;;;;;5.90;2.40;;;;;;;30.08;37.87;99084.61;105929;1251;72564;-43
2023/06/10 09:02:40;;;;;;;7.40;2.50;;;;;;;30.33;36.63;99011.30;105928;1251;64303;-43
2023/06/10 09:05:09;;;;;;;8.20;2.70;;;;;;;30.36;35.90;98887.53;105898;1254;71389;-43
2023/06/10 09:07:37;;;;;;;8.70;2.10;;;;;;;30.51;36.95;99009.44;105938;1251;60473;-43
2023/06/10 09:10:06;;;;;;;6.40;2.10;;;;;;;30.81;37.39;99099.63;105873;1256;60351;-43
2023/06/10 09:12:37;;;;;;;32.70;3.30;;;;;;;31.18;35.38;98865.77;105944;1251;73796;-43
2023/06/10 09:15:06;;;;;;;6.70;2.20;;;;;;;31.45;33.88;98591.33;105931;1251;64014;-43
2023/06/10 09:17:36;;;;;;;10.70;2.50;;;;;;;31.57;33.01;98471.46;105922;1251;73058;-43
2023/06/10 09:20:05;;;;;;;7.50;2.30;;;;;;;31.67;33.99;98566.12;105899;1253;60863;-43
2023/06/10 09:22:37;;;;;;;10.30;2.40;;;;;;;31.87;33.12;98472.02;105896;1257;60440;-44
2023/06/10 09:25:09;;;;;;;11.60;2.60;;;;;;;32.07;31.49;98261.93;105906;1251;72607;-44
2023/06/10 09:27:49;;;;;;;11.30;2.90;;;;;;;31.97;31.72;98221.22;105944;1251;65516;-43
2023/06/10 09:30:29;;;;;;;15.10;2.80;;;;;;;31.88;31.97;98293.23;105971;1251;72643;-43
2023/06/10 09:32:59;;;;;;;14.60;3.10;;;;;;;31.81;31.12;98173.30;105978;1256;61148;-44
2023/06/10 09:35:30;;;;;;;19.50;3.10;;;;;;;31.87;31.54;98208.16;105988;1256;60421;-44
2023/06/10 09:37:58;;;;;;;10.60;3.00;;;;;;;32.07;31.70;98220.70;105927;1251;72584;-43
2023/06/10 09:40:27;;;;;;;8.60;2.40;;;;;;;32.12;32.08;98307.44;105887;1252;63864;-43
2023/06/10 09:42:57;;;;;;;16.30;2.80;;;;;;;32.10;30.96;98140.63;105920;1254;71084;-43
2023/06/10 09:45:31;;;;;;;16.50;3.70;;;;;;;32.03;31.36;98175.60;105927;1251;60424;-43
2023/06/10 09:48:00;;;;;;;20.30;3.50;;;;;;;32.14;31.02;98111.80;105950;1256;60312;-43
2023/06/10 09:50:32;;;;;;;23.10;3.20;;;;;;;32.11;30.28;98022.21;105976;1253;73791;-43
2023/06/10 09:53:02;;;;;;;25.80;3.10;;;;;;;31.72;30.52;98031.07;105763;1251;64085;-43
2023/06/10 09:55:33;;;;;;;21.30;2.70;;;;;;;31.44;30.97;98105.40;105951;1256;71441;-43
2023/06/10 09:58:00;;;;;;;14.70;2.70;;;;;;;31.54;32.11;98237.56;105901;1251;60478;-43
2023/06/10 10:00:28;;;;;;;11.10;2.40;;;;;;;31.49;30.66;98083.50;105925;1251;60386;-43
2023/06/10 10:02:56;;;;;;;18.10;2.90;;;;;;;31.10;31.72;98193.48;105899;1251;72571;-44
2023/06/10 10:05:24;;;;;;;30.10;3.50;;;;;;;30.84;33.57;98443.68;105905;1257;64374;-44
2023/06/10 10:07:52;;;;;;;25.80;3.00;;;;;;;30.92;33.30;98474.72;105904;1257;71510;-43
2023/06/10 10:10:20;;;;;;;21.10;3.10;;;;;;;31.20;32.61;98408.81;105919;1255;60478;-44
2023/06/10 10:12:51;;;;;;;18.90;2.70;;;;;;;31.51;31.73;98267.81;105959;1257;60322;-46
2023/06/10 10:15:18;;;;;;;17.10;3.10;;;;;;;31.90;31.43;98250.65;105698;1253;73787;-44
2023/06/10 10:17:50;;;;;;;21.00;2.40;;;;;;;32.28;30.35;98098.75;105835;1251;65337;-46
2023/06/10 10:20:20;;;;;;;17.10;3.40;;;;;;;32.54;29.84;98016.98;105788;1251;72611;-45
2023/06/10 10:22:48;;;;;;;14.20;2.90;;;;;;;32.67;30.53;98046.96;105926;1251;60573;-45
2023/06/10 10:25:17;;;;;;;35.00;3.50;;;;;;;32.82;30.32;98045.21;105723;1251;60432;-45
2023/06/10 10:27:49;;;;;;;34.40;3.30;;;;;;;33.10;30.68;98066.01;105931;1251;73008;-44
2023/06/10 10:30:17;;;;;;;16.40;2.70;;;;;;;33.31;30.61;98055.21;105957;1251;63879;-45
2023/06/10 10:33:04;;;;;;;17.00;2.90;;;;;;;33.50;31.13;98144.75;105954;1256;71392;-45
2023/06/10 10:35:36;;;;;;;21.20;3.00;;;;;;;33.81;29.61;97931.41;105900;1257;60424;-45
2023/06/10 10:38:04;;;;;;;29.30;2.90;;;;;;;34.04;29.79;97912.96;105903;1252;60418;-45
2023/06/10 10:40:32;;;;;;;26.30;2.70;;;;;;;34.22;28.50;97715.08;105811;1257;73834;-44
2023/06/10 10:43:00;;;;;;;28.00;3.00;;;;;;;34.11;28.29;97660.31;105901;1251;64838;-43
2023/06/10 10:45:28;;;;;;;24.10;3.00;;;;;;;33.80;28.34;97642.20;105784;1251;72683;-43
2023/06/10 10:47:57;;;;;;;19.70;3.00;;;;;;;33.34;28.93;97689.55;105914;1255;60552;-43
2023/06/10 10:50:26;;;;;;;25.20;3.20;;;;;;;32.65;29.16;97733.38;105943;1257;60420;-45
2023/06/10 10:52:59;;;;;;;16.90;3.10;;;;;;;31.91;30.36;97879.33;105771;1251;72605;-42
2023/06/10 10:55:27;;;;;;;19.00;3.10;;;;;;;31.28;30.76;97972.63;105936;1251;64613;-44
2023/06/10 10:58:06;;;;;;;14.00;3.00;;;;;;;30.82;30.80;98007.48;105937;1254;71746;-45
2023/06/10 11:00:37;;;;;;;30.60;3.40;;;;;;;30.61;30.72;98025.67;105957;1256;60446;-45
2023/06/10 11:03:09;;;;;;;28.10;2.90;;;;;;;30.57;31.41;98094.36;105973;1256;60332;-45
2023/06/10 11:05:40;;;;;;;23.10;3.10;;;;;;;30.77;31.16;98102.95;105910;1251;73095;-44
2023/06/10 11:08:09;;;;;;;29.10;3.50;;;;;;;30.84;30.86;98052.06;105934;1257;65192;-45
2023/06/10 11:10:38;;;;;;;32.10;2.90;;;;;;;30.73;31.54;98129.84;105923;1255;72055;-45
2023/06/10 11:13:07;;;;;;;19.30;3.20;;;;;;;30.65;32.47;98239.19;105959;1251;60514;-44
2023/06/10 11:15:39;;;;;;;27.50;3.00;;;;;;;30.72;34.10;98444.37;105955;1251;60879;-44
2023/06/10 11:18:13;;;;;;;18.00;2.90;;;;;;;30.89;33.97;98506.73;105930;1251;73724;-44
2023/06/10 11:20:49;;;;;;;26.20;2.90;;;;;;;31.01;33.26;98434.02;105880;1257;65199;-45